sensor_id;sensor_type;location;lat;lon;timestamp;P1;durP1;ratioP1;P2;durP2;ratioP2
65656;SDS011;57397;50.096;14.404;2023-06-22T20:04:50;3.63;;;2.80;;
65656;SDS011;57397;50.096;14.404;2023-06-22T20:07:16;3.33;;;2.92;;
65656;SDS011;57397;50.096;14.404;2023-06-22T20:09:41;3.60;;;2.90;;
65656;SDS011;57397;50.096;14.404;2023-06-22T20:12:25;4.63;;;2.72;;
65656;SDS011;57397;50.096;14.404;2023-06-22T20:14:55;3.33;;;2.85;;
65656;SDS011;57397;50.096;14.404;2023-06-22T20:17:20;5.22;;;3.03;;
65656;SDS011;57397;50.096;14.404;2023-06-22T20:19:52;4.38;;;2.95;;
65656;SDS011;57397;50.096;14.404;2023-06-22T20:22:18;4.90;;;2.88;;
65656;SDS011;57397;50.096;14.404;2023-06-22T20:24:44;3.90;;;2.83;;
65656;SDS011;57397;50.096;14.404;2023-06-22T20:27:10;4.22;;;3.10;;
65656;SDS011;57397;50.096;14.404;2023-06-22T20:29:39;4.60;;;3.15;;
65656;SDS011;57397;50.096;14.404;2023-06-22T20:32:05;4.63;;;2.97;;
65656;SDS011;57397;50.096;14.404;2023-06-22T20:34:33;5.60;;;2.80;;
65656;SDS011;57397;50.096;14.404;2023-06-22T20:37:12;4.55;;;3.00;;
65656;SDS011;57397;50.096;14.404;2023-06-22T20:39:39;3.75;;;2.80;;
65656;SDS011;57397;50.096;14.404;2023-06-22T20:42:05;5.25;;;2.95;;
65656;SDS011;57397;50.096;14.404;2023-06-22T20:44:31;3.58;;;2.90;;
65656;SDS011;57397;50.096;14.404;2023-06-22T20:46:57;5.50;;;3.30;;
65656;SDS011;57397;50.096;14.404;2023-06-22T20:49:23;4.00;;;2.85;;
65656;SDS011;57397;50.096;14.404;2023-06-22T20:51:51;3.42;;;2.78;;
65656;SDS011;57397;50.096;14.404;2023-06-22T20:54:17;3.33;;;2.95;;
65656;SDS011;57397;50.096;14.404;2023-06-22T20:56:43;5.25;;;3.10;;
65656;SDS011;57397;50.096;14.404;2023-06-22T20:59:10;4.65;;;3.40;;
65656;SDS011;57397;50.096;14.404;2023-06-22T21:01:35;3.45;;;3.03;;
65656;SDS011;57397;50.096;14.404;2023-06-22T21:04:01;4.75;;;3.25;;
65656;SDS011;57397;50.096;14.404;2023-06-22T21:06:27;5.38;;;3.50;;
65656;SDS011;57397;50.096;14.404;2023-06-22T21:08:53;4.18;;;3.30;;
65656;SDS011;57397;50.096;14.404;2023-06-22T21:11:18;4.80;;;3.28;;
65656;SDS011;57397;50.096;14.404;2023-06-22T21:13:44;3.97;;;3.30;;
65656;SDS011;57397;50.096;14.404;2023-06-22T21:16:09;4.50;;;3.30;;
65656;SDS011;57397;50.096;14.404;2023-06-22T21:18:35;5.03;;;3.30;;
65656;SDS011;57397;50.096;14.404;2023-06-22T21:21:00;4.47;;;3.20;;
65656;SDS011;57397;50.096;14.404;2023-06-22T21:23:26;3.42;;;3.13;;
65656;SDS011;57397;50.096;14.404;2023-06-22T21:25:51;4.97;;;3.20;;
65656;SDS011;57397;50.096;14.404;2023-06-22T21:28:17;4.43;;;3.47;;
65656;SDS011;57397;50.096;14.404;2023-06-22T21:30:43;6.30;;;3.38;;
65656;SDS011;57397;50.096;14.404;2023-06-22T21:33:09;4.70;;;3.20;;
65656;SDS011;57397;50.096;14.404;2023-06-22T21:35:34;3.67;;;3.25;;
65656;SDS011;57397;50.096;14.404;2023-06-22T21:38:01;4.75;;;3.25;;
65656;SDS011;57397;50.096;14.404;2023-06-22T21:40:26;4.68;;;3.42;;
65656;SDS011;57397;50.096;14.404;2023-06-22T21:42:52;5.50;;;3.20;;
65656;SDS011;57397;50.096;14.404;2023-06-22T21:45:17;4.68;;;3.33;;
65656;SDS011;57397;50.096;14.404;2023-06-22T21:47:43;3.97;;;3.08;;
65656;SDS011;57397;50.096;14.404;2023-06-22T21:50:09;4.30;;;3.38;;
65656;SDS011;57397;50.096;14.404;2023-06-22T21:52:34;4.00;;;3.13;;
65656;SDS011;57397;50.096;14.404;2023-06-22T21:55:00;5.47;;;3.47;;
65656;SDS011;57397;50.096;14.404;2023-06-22T21:57:26;5.15;;;3.40;;
65656;SDS011;57397;50.096;14.404;2023-06-22T21:59:54;4.88;;;3.33;;
65656;SDS011;57397;50.096;14.404;2023-06-22T22:02:20;4.13;;;3.20;;
65656;SDS011;57397;50.096;14.404;2023-06-22T22:04:46;4.50;;;3.13;;
65656;SDS011;57397;50.096;14.404;2023-06-22T22:07:11;5.90;;;3.10;;
65656;SDS011;57397;50.096;14.404;2023-06-22T22:09:37;4.28;;;3.47;;
65656;SDS011;57397;50.096;14.404;2023-06-22T22:12:02;4.68;;;3.30;;
65656;SDS011;57397;50.096;14.404;2023-06-22T22:14:28;4.28;;;3.20;;
65656;SDS011;57397;50.096;14.404;2023-06-22T22:16:54;7.72;;;3.97;;
65656;SDS011;57397;50.096;14.404;2023-06-22T22:19:20;5.97;;;3.60;;
65656;SDS011;57397;50.096;14.404;2023-06-22T22:21:46;7.15;;;3.47;;
65656;SDS011;57397;50.096;14.404;2023-06-22T22:24:12;5.30;;;3.47;;
65656;SDS011;57397;50.096;14.404;2023-06-22T22:26:37;5.03;;;3.67;;
65656;SDS011;57397;50.096;14.404;2023-06-22T22:29:03;4.25;;;3.50;;
65656;SDS011;57397;50.096;14.404;2023-06-22T22:31:29;5.85;;;3.55;;
65656;SDS011;57397;50.096;14.404;2023-06-22T22:33:56;6.85;;;3.83;;
65656;SDS011;57397;50.096;14.404;2023-06-22T22:36:21;4.97;;;3.45;;
65656;SDS011;57397;50.096;14.404;2023-06-22T22:38:47;6.60;;;3.90;;
65656;SDS011;57397;50.096;14.404;2023-06-22T22:41:13;4.82;;;3.78;;
65656;SDS011;57397;50.096;14.404;2023-06-22T22:43:38;4.63;;;3.75;;
65656;SDS011;57397;50.096;14.404;2023-06-22T22:46:04;4.75;;;3.58;;
65656;SDS011;57397;50.096;14.404;2023-06-22T22:48:30;4.80;;;3.67;;
65656;SDS011;57397;50.096;14.404;2023-06-22T22:50:56;4.80;;;3.58;;
65656;SDS011;57397;50.096;14.404;2023-06-22T22:53:23;5.82;;;3.78;;
65656;SDS011;57397;50.096;14.404;2023-06-22T22:55:49;5.88;;;3.67;;
65656;SDS011;57397;50.096;14.404;2023-06-22T22:58:15;6.38;;;3.70;;
65656;SDS011;57397;50.096;14.404;2023-06-22T23:00:40;6.40;;;4.10;;
65656;SDS011;57397;50.096;14.404;2023-06-22T23:03:06;5.13;;;3.65;;
65656;SDS011;57397;50.096;14.404;2023-06-22T23:05:31;5.68;;;3.80;;
65656;SDS011;57397;50.096;14.404;2023-06-22T23:07:57;5.50;;;3.75;;
65656;SDS011;57397;50.096;14.404;2023-06-22T23:10:22;5.82;;;3.78;;
65656;SDS011;57397;50.096;14.404;2023-06-22T23:12:48;5.55;;;3.88;;
65656;SDS011;57397;50.096;14.404;2023-06-22T23:15:13;6.32;;;3.60;;
65656;SDS011;57397;50.096;14.404;2023-06-22T23:17:39;9.25;;;4.00;;
65656;SDS011;57397;50.096;14.404;2023-06-22T23:20:08;4.78;;;3.60;;
65656;SDS011;57397;50.096;14.404;2023-06-22T23:22:35;7.13;;;3.80;;
65656;SDS011;57397;50.096;14.404;2023-06-22T23:25:02;11.40;;;3.50;;
65656;SDS011;57397;50.096;14.404;2023-06-22T23:27:28;6.72;;;3.25;;
65656;SDS011;57397;50.096;14.404;2023-06-22T23:29:54;5.57;;;3.45;;
65656;SDS011;57397;50.096;14.404;2023-06-22T23:32:19;4.70;;;3.25;;
65656;SDS011;57397;50.096;14.404;2023-06-22T23:34:45;5.32;;;3.30;;
65656;SDS011;57397;50.096;14.404;2023-06-22T23:37:10;6.35;;;3.08;;
65656;SDS011;57397;50.096;14.404;2023-06-22T23:39:36;4.88;;;3.28;;
65656;SDS011;57397;50.096;14.404;2023-06-22T23:42:01;5.30;;;3.30;;
65656;SDS011;57397;50.096;14.404;2023-06-22T23:44:27;3.95;;;2.80;;
65656;SDS011;57397;50.096;14.404;2023-06-22T23:46:53;3.50;;;2.90;;
65656;SDS011;57397;50.096;14.404;2023-06-22T23:49:22;10.27;;;3.40;;
65656;SDS011;57397;50.096;14.404;2023-06-22T23:51:48;7.35;;;3.00;;
65656;SDS011;57397;50.096;14.404;2023-06-22T23:54:14;4.07;;;3.00;;
65656;SDS011;57397;50.096;14.404;2023-06-22T23:56:41;4.57;;;3.30;;
65656;SDS011;57397;50.096;14.404;2023-06-22T23:59:07;3.78;;;2.97;;
